Eureka, North Carolina
Current Conditions -  °F | °C
As of 2:55 PM on Wednesday 17 Dec 2014 (Local Time) from KGWW Reporting Station
Clear Clear  
Wind Chill: 15°   Ceiling: Unl
Heat Index: 15°   Visibility: 10mi
Dew Point:   Wind: 8mph
Humidity: 48%   Direction: 280°W
Pressure: 30.02"   Gusts: NA
Location:  35.5277°N, 77.996°W
Report Text: KGWW 171955Z AUTO 28007KT 10SM CLR 15/04 A3002 RMK AO2 T01500040
Loading
Personal Weather Stations






























Interactive Weather Map New forecast layout! Learn more

10-Day Weather Forecast

Advertisements
Track Severe Weather on mobile